Time;durP1;ratioP1;P1;durP2;ratioP2;P2;SDS_P1;SDS_P2;PMS_P1;PMS_P2;Temp;Humidity;BMP_temperature;BMP_pressure;BME280_temperature;BME280_humidity;BME280_pressure;Samples;Min_cycle;Max_cycle;Signal;HPM_P1;HPM_P2
2022/12/06 00:00:24;;;;;;;;;;;3.30;99.90;;;;;;6127176;23;19905;-76
2022/12/06 00:02:49;;;;;;;;;;;3.30;99.90;;;;;;6126960;23;20055;-76
2022/12/06 00:05:15;;;;;;;;;;;3.40;99.90;;;;;;6127237;23;19943;-75
2022/12/06 00:07:41;;;;;;;;;;;3.30;99.90;;;;;;6126946;23;19960;-75
2022/12/06 00:10:06;;;;;;;;;;;3.20;1.00;;;;;;6126757;23;19927;-77
2022/12/06 00:12:32;;;;;;;;;;;3.10;1.00;;;;;;6126870;23;20296;-76
2022/12/06 00:14:58;;;;;;;;;;;3.10;1.00;;;;;;6126814;23;19951;-75
2022/12/06 00:17:23;;;;;;;;;;;3.20;1.00;;;;;;6126869;23;19967;-77
2022/12/06 00:19:49;;;;;;;;;;;3.20;1.00;;;;;;6126752;23;20286;-75
2022/12/06 00:22:14;;;;;;;;;;;3.40;1.00;;;;;;6127390;23;19980;-76
2022/12/06 00:24:40;;;;;;;;;;;3.60;1.00;;;;;;6127236;23;19980;-75
2022/12/06 00:27:06;;;;;;;;;;;3.80;99.90;;;;;;6126793;23;19901;-77
2022/12/06 00:29:31;;;;;;;;;;;4.00;99.90;;;;;;6126847;23;19904;-77
2022/12/06 00:31:57;;;;;;;;;;;3.60;99.90;;;;;;6126811;23;19952;-76
2022/12/06 00:34:23;;;;;;;;;;;3.50;99.90;;;;;;6126785;23;19933;-77
2022/12/06 00:36:48;;;;;;;;;;;3.40;99.90;;;;;;6126882;23;19901;-76
2022/12/06 00:39:15;;;;;;;;;;;3.60;99.90;;;;;;6126843;23;19901;-77
2022/12/06 00:41:41;;;;;;;;;;;3.70;99.90;;;;;;6126710;23;19928;-76
2022/12/06 00:44:07;;;;;;;;;;;3.70;99.90;;;;;;6126710;23;19901;-76
2022/12/06 00:46:33;;;;;;;;;;;3.70;99.90;;;;;;6126680;23;19901;-77
2022/12/06 00:49:00;;;;;;;;;;;3.70;99.90;;;;;;6100702;23;20324;-76
2022/12/06 00:51:26;;;;;;;;;;;3.60;99.90;;;;;;6126498;23;19905;-77
2022/12/06 00:53:52;;;;;;;;;;;3.60;99.90;;;;;;6126751;23;19908;-76
2022/12/06 00:56:18;;;;;;;;;;;3.60;99.90;;;;;;6126702;23;19908;-76
2022/12/06 00:58:44;;;;;;;;;;;3.80;99.90;;;;;;6125086;23;19901;-77
2022/12/06 01:01:11;;;;;;;;;;;3.80;99.90;;;;;;6126673;23;19901;-78
2022/12/06 01:03:37;;;;;;;;;;;3.90;99.90;;;;;;6126590;23;19913;-76
2022/12/06 01:06:04;;;;;;;;;;;4.00;99.90;;;;;;6128999;23;19901;-77
2022/12/06 01:08:30;;;;;;;;;;;4.00;99.90;;;;;;6102496;23;19932;-76
2022/12/06 01:10:56;;;;;;;;;;;4.00;99.90;;;;;;6102412;23;19905;-77
2022/12/06 01:13:21;;;;;;;;;;;4.10;99.90;;;;;;6128637;23;19980;-75
2022/12/06 01:15:47;;;;;;;;;;;4.30;99.90;;;;;;6128328;23;19901;-76
2022/12/06 01:18:13;;;;;;;;;;;4.40;99.90;;;;;;6128606;23;19900;-76
2022/12/06 01:20:38;;;;;;;;;;;4.30;99.90;;;;;;6128388;23;19923;-76
2022/12/06 01:23:04;;;;;;;;;;;4.20;99.90;;;;;;6129538;23;20338;-75
2022/12/06 01:25:31;;;;;;;;;;;4.10;99.90;;;;;;6128325;23;19975;-75
2022/12/06 01:27:57;;;;;;;;;;;4.10;99.90;;;;;;6128331;23;19901;-77
2022/12/06 01:30:23;;;;;;;;;;;4.00;99.90;;;;;;6128198;23;19905;-75
2022/12/06 01:32:48;;;;;;;;;;;4.00;99.90;;;;;;6128367;23;19901;-75
2022/12/06 01:35:14;;;;;;;;;;;4.00;99.90;;;;;;6126600;23;19905;-75
2022/12/06 01:37:40;;;;;;;;;;;4.00;99.90;;;;;;6128155;23;19901;-76
2022/12/06 01:40:05;;;;;;;;;;;3.90;99.90;;;;;;6128141;23;20228;-77
2022/12/06 01:42:31;;;;;;;;;;;3.90;99.90;;;;;;6128313;23;19967;-76
2022/12/06 01:44:58;;;;;;;;;;;3.80;99.90;;;;;;6128291;23;19901;-76
2022/12/06 01:47:28;;;;;;;;;;;3.80;99.90;;;;;;6128159;23;19901;-77
2022/12/06 01:50:06;;;;;;;;;;;3.70;1.00;;;;;;6128488;23;19962;-76
2022/12/06 01:52:36;;;;;;;;;;;3.70;1.00;;;;;;6128216;23;20019;-76
2022/12/06 01:55:03;;;;;;;;;;;3.70;1.00;;;;;;6128778;23;20213;-76
2022/12/06 01:57:29;;;;;;;;;;;3.70;1.00;;;;;;6127938;23;19901;-74
2022/12/06 01:59:54;;;;;;;;;;;3.80;1.00;;;;;;6128509;23;19901;-76
2022/12/06 02:02:20;;;;;;;;;;;3.80;1.00;;;;;;6127177;23;19920;-77
2022/12/06 02:04:46;;;;;;;;;;;3.80;99.90;;;;;;6128063;23;19933;-77
2022/12/06 02:07:12;;;;;;;;;;;3.80;99.90;;;;;;6127957;23;19912;-76
2022/12/06 02:09:38;;;;;;;;;;;3.80;99.90;;;;;;6127804;23;19901;-76
2022/12/06 02:12:10;;;;;;;;;;;3.80;99.90;;;;;;6128065;23;19901;-76
2022/12/06 02:14:35;;;;;;;;;;;3.90;99.90;;;;;;6128055;23;19976;-75
2022/12/06 02:17:08;;;;;;;;;;;4.00;99.90;;;;;;6127878;23;19908;-76
2022/12/06 02:19:33;;;;;;;;;;;4.10;99.90;;;;;;6127821;23;19927;-76
2022/12/06 02:21:59;;;;;;;;;;;4.10;99.90;;;;;;6128623;23;19901;-76
2022/12/06 02:24:27;;;;;;;;;;;4.20;99.90;;;;;;6127812;23;19901;-75
2022/12/06 02:27:05;;;;;;;;;;;4.20;99.90;;;;;;6127761;23;19901;-76
2022/12/06 02:29:33;;;;;;;;;;;4.20;99.90;;;;;;6127697;23;19904;-76
2022/12/06 02:32:02;;;;;;;;;;;4.20;99.90;;;;;;6127717;23;19928;-76
2022/12/06 02:34:39;;;;;;;;;;;4.20;99.90;;;;;;6127839;23;19904;-75
2022/12/06 02:37:16;;;;;;;;;;;4.20;99.90;;;;;;6127723;23;19948;-75
2022/12/06 02:39:45;;;;;;;;;;;4.20;99.90;;;;;;6101229;23;20221;-76
2022/12/06 02:42:17;;;;;;;;;;;4.20;99.90;;;;;;6127819;23;20279;-77
2022/12/06 02:44:45;;;;;;;;;;;4.20;99.90;;;;;;6127724;23;19980;-77
2022/12/06 02:47:13;;;;;;;;;;;4.20;99.90;;;;;;6127611;23;19901;-76
2022/12/06 02:49:43;;;;;;;;;;;4.20;99.90;;;;;;6127463;23;19900;-76
2022/12/06 02:52:10;;;;;;;;;;;4.20;99.90;;;;;;6127586;23;20347;-76
2022/12/06 02:54:37;;;;;;;;;;;4.30;99.90;;;;;;6127488;23;19980;-75
2022/12/06 02:57:02;;;;;;;;;;;4.30;99.90;;;;;;6127603;23;19908;-77
2022/12/06 02:59:28;;;;;;;;;;;4.40;99.90;;;;;;6127477;23;19901;-76
2022/12/06 03:01:58;;;;;;;;;;;4.50;99.90;;;;;;6127325;23;19920;-76
2022/12/06 03:04:30;;;;;;;;;;;4.50;99.90;;;;;;6127362;23;19901;-75
2022/12/06 03:07:02;;;;;;;;;;;4.50;99.90;;;;;;6127604;23;19904;-76
2022/12/06 03:09:54;;;;;;;;;;;4.40;99.90;;;;;;6127575;23;19908;-76
2022/12/06 03:12:29;;;;;;;;;;;4.40;99.90;;;;;;6122794;23;19908;-77
2022/12/06 03:15:07;;;;;;;;;;;4.40;99.90;;;;;;6127561;23;19907;-76
2022/12/06 03:17:33;;;;;;;;;;;4.40;99.90;;;;;;6127645;23;19975;-76
2022/12/06 03:20:03;;;;;;;;;;;4.30;99.90;;;;;;6127249;23;20339;-76
2022/12/06 03:22:32;;;;;;;;;;;4.30;99.90;;;;;;6127936;23;19976;-75
2022/12/06 03:24:58;;;;;;;;;;;4.40;99.90;;;;;;6127208;23;19908;-76
2022/12/06 03:27:24;;;;;;;;;;;4.40;99.90;;;;;;6126913;23;19901;-75
2022/12/06 03:29:52;;;;;;;;;;;4.30;99.90;;;;;;6127265;23;19944;-76
2022/12/06 03:32:20;;;;;;;;;;;4.30;99.90;;;;;;6127085;23;19908;-77
2022/12/06 03:34:47;;;;;;;;;;;4.40;99.90;;;;;;6127239;23;20003;-76
2022/12/06 03:37:15;;;;;;;;;;;4.30;99.90;;;;;;6127082;23;19900;-76
2022/12/06 03:39:46;;;;;;;;;;;4.40;99.90;;;;;;6127065;23;19901;-75
2022/12/06 03:42:12;;;;;;;;;;;4.30;99.90;;;;;;6127157;23;20387;-75
2022/12/06 03:44:38;;;;;;;;;;;4.20;99.90;;;;;;6127492;23;20239;-76
2022/12/06 03:47:22;;;;;;;;;;;4.20;99.90;;;;;;6127369;23;19901;-76
2022/12/06 03:49:52;;;;;;;;;;;4.20;99.90;;;;;;6126923;23;20276;-75
2022/12/06 03:52:17;;;;;;;;;;;4.10;99.90;;;;;;6127006;23;19948;-76
2022/12/06 03:54:43;;;;;;;;;;;4.10;99.90;;;;;;6127389;23;19901;-75
2022/12/06 03:57:08;;;;;;;;;;;4.10;99.90;;;;;;6127097;23;19955;-75
2022/12/06 03:59:34;;;;;;;;;;;4.10;99.90;;;;;;6126872;23;19901;-75
2022/12/06 04:01:59;;;;;;;;;;;4.20;99.90;;;;;;6125014;23;19916;-75
2022/12/06 04:04:25;;;;;;;;;;;4.30;99.90;;;;;;6127407;23;20355;-75
2022/12/06 04:06:51;;;;;;;;;;;4.20;99.90;;;;;;6127164;23;19976;-76
2022/12/06 04:12:01;;;;;;;;;;;4.30;99.90;;;;;;6126668;23;19959;-76
2022/12/06 04:14:31;;;;;;;;;;;4.30;99.90;;;;;;6126828;23;19905;-75
2022/12/06 04:19:43;;;;;;;;;;;4.20;99.90;;;;;;6126613;23;19971;-76
2022/12/06 04:24:53;;;;;;;;;;;4.20;99.90;;;;;;6126536;23;19963;-76
2022/12/06 04:40:59;;;;;;;;;;;4.20;99.90;;;;;;6128628;23;19908;-76
2022/12/06 04:43:42;;;;;;;;;;;4.20;99.90;;;;;;6128801;23;19901;-76
2022/12/06 04:46:09;;;;;;;;;;;4.30;99.90;;;;;;6128770;23;19901;-75
2022/12/06 04:48:34;;;;;;;;;;;4.40;99.90;;;;;;6128606;23;20347;-77
2022/12/06 04:51:03;;;;;;;;;;;4.30;99.90;;;;;;6128498;23;19904;-75
2022/12/06 04:53:28;;;;;;;;;;;4.30;99.90;;;;;;6128990;23;19952;-75
2022/12/06 04:55:54;;;;;;;;;;;4.30;99.90;;;;;;6102570;23;19900;-76
2022/12/06 04:58:19;;;;;;;;;;;4.30;99.90;;;;;;6128522;23;19905;-75
2022/12/06 05:00:45;;;;;;;;;;;4.40;99.90;;;;;;6128497;23;20287;-75
2022/12/06 05:03:11;;;;;;;;;;;4.30;99.90;;;;;;6128283;23;19942;-76
2022/12/06 05:05:37;;;;;;;;;;;4.40;99.90;;;;;;6128501;23;19956;-76
2022/12/06 05:08:03;;;;;;;;;;;4.30;99.90;;;;;;6128652;23;19901;-76
2022/12/06 05:10:29;;;;;;;;;;;4.30;99.90;;;;;;6102457;23;20291;-76
2022/12/06 05:12:54;;;;;;;;;;;4.30;99.90;;;;;;6128443;23;19901;-77
2022/12/06 05:15:20;;;;;;;;;;;4.30;99.90;;;;;;6128513;23;19900;-75
2022/12/06 05:17:45;;;;;;;;;;;4.20;99.90;;;;;;6128695;23;19972;-75
2022/12/06 05:20:13;;;;;;;;;;;4.30;99.90;;;;;;6128626;23;19923;-76
2022/12/06 05:22:38;;;;;;;;;;;4.30;99.90;;;;;;6128928;23;19908;-75
2022/12/06 05:25:04;;;;;;;;;;;4.30;99.90;;;;;;6127901;23;19900;-76
2022/12/06 05:27:30;;;;;;;;;;;4.30;99.90;;;;;;6128337;23;19928;-77
2022/12/06 05:29:55;;;;;;;;;;;4.30;99.90;;;;;;6128492;23;19905;-76
2022/12/06 05:32:21;;;;;;;;;;;4.30;99.90;;;;;;6128227;23;19900;-74
2022/12/06 05:34:46;;;;;;;;;;;4.30;99.90;;;;;;6128220;23;19904;-77
2022/12/06 05:37:12;;;;;;;;;;;4.30;99.90;;;;;;6128466;23;19912;-76
2022/12/06 05:39:38;;;;;;;;;;;4.30;99.90;;;;;;6128379;23;19967;-75
2022/12/06 05:42:03;;;;;;;;;;;4.30;99.90;;;;;;6102133;23;19901;-75
2022/12/06 05:44:29;;;;;;;;;;;4.30;99.90;;;;;;6128221;23;19947;-76
2022/12/06 05:46:54;;;;;;;;;;;4.30;99.90;;;;;;6128426;23;20248;-76
2022/12/06 05:49:20;;;;;;;;;;;4.30;99.90;;;;;;6127878;23;19901;-76
2022/12/06 05:51:45;;;;;;;;;;;4.20;99.90;;;;;;6127930;23;19905;-76
2022/12/06 05:54:11;;;;;;;;;;;4.20;99.90;;;;;;6128039;23;19908;-75
2022/12/06 05:56:37;;;;;;;;;;;4.30;99.90;;;;;;6127969;23;19916;-76
2022/12/06 05:59:02;;;;;;;;;;;4.30;99.90;;;;;;6128352;23;19972;-76
2022/12/06 06:01:28;;;;;;;;;;;4.30;99.90;;;;;;6128356;23;20225;-75
2022/12/06 06:03:53;;;;;;;;;;;4.40;99.90;;;;;;6127451;23;19913;-76
2022/12/06 06:06:20;;;;;;;;;;;4.40;99.90;;;;;;6127896;23;19979;-75
2022/12/06 06:08:45;;;;;;;;;;;4.40;99.90;;;;;;6128163;23;19904;-76
2022/12/06 06:11:11;;;;;;;;;;;4.40;99.90;;;;;;6127746;23;19904;-76
2022/12/06 06:13:36;;;;;;;;;;;4.40;99.90;;;;;;6127832;23;20224;-74
2022/12/06 06:16:02;;;;;;;;;;;4.50;99.90;;;;;;6127845;23;20276;-74
2022/12/06 06:18:28;;;;;;;;;;;4.50;99.90;;;;;;6101769;23;19925;-75
2022/12/06 06:20:55;;;;;;;;;;;4.40;99.90;;;;;;6126304;23;19905;-76
2022/12/06 06:23:21;;;;;;;;;;;4.40;99.90;;;;;;6128499;23;19998;-77
2022/12/06 06:25:46;;;;;;;;;;;4.40;99.90;;;;;;6127753;23;19901;-76
2022/12/06 06:28:12;;;;;;;;;;;4.40;99.90;;;;;;6127744;23;19933;-76
2022/12/06 06:30:38;;;;;;;;;;;4.30;99.90;;;;;;6127631;23;19987;-76
2022/12/06 06:33:04;;;;;;;;;;;4.30;99.90;;;;;;6128125;23;19905;-76
2022/12/06 06:35:29;;;;;;;;;;;4.30;99.90;;;;;;6101731;23;20005;-76
2022/12/06 06:37:55;;;;;;;;;;;4.30;99.90;;;;;;6127651;23;20248;-76
2022/12/06 06:40:21;;;;;;;;;;;4.40;99.90;;;;;;6127579;23;20368;-75
2022/12/06 06:42:47;;;;;;;;;;;4.40;99.90;;;;;;6127811;23;19980;-75
2022/12/06 06:45:12;;;;;;;;;;;4.40;99.90;;;;;;6127596;23;19932;-77
2022/12/06 06:47:38;;;;;;;;;;;4.40;99.90;;;;;;6127447;23;19900;-76
2022/12/06 06:50:05;;;;;;;;;;;4.30;99.90;;;;;;6127414;23;20235;-76
2022/12/06 06:52:31;;;;;;;;;;;4.40;99.90;;;;;;6127152;23;20228;-75
2022/12/06 06:54:57;;;;;;;;;;;4.50;99.90;;;;;;6127396;23;19901;-75
2022/12/06 06:57:23;;;;;;;;;;;4.50;99.90;;;;;;6127647;23;20311;-77
2022/12/06 06:59:48;;;;;;;;;;;4.50;99.90;;;;;;6127246;23;19905;-76
2022/12/06 07:02:16;;;;;;;;;;;4.50;99.90;;;;;;6126962;23;20354;-76
2022/12/06 07:04:42;;;;;;;;;;;4.60;99.90;;;;;;6127375;23;20320;-77
2022/12/06 07:07:07;;;;;;;;;;;4.60;99.90;;;;;;6127420;23;20324;-76
2022/12/06 07:09:33;;;;;;;;;;;4.60;99.90;;;;;;6101353;23;19901;-76
2022/12/06 07:11:58;;;;;;;;;;;4.50;99.90;;;;;;6127737;23;19951;-76
2022/12/06 07:14:24;;;;;;;;;;;4.60;99.90;;;;;;6127469;23;19901;-76
2022/12/06 07:16:50;;;;;;;;;;;4.50;99.90;;;;;;6127226;23;20284;-76
2022/12/06 07:19:15;;;;;;;;;;;4.60;99.90;;;;;;6127266;23;19901;-76
2022/12/06 07:21:41;;;;;;;;;;;4.60;99.90;;;;;;6127240;23;19979;-75
2022/12/06 07:24:08;;;;;;;;;;;4.60;99.90;;;;;;6127770;23;19900;-76
2022/12/06 07:26:34;;;;;;;;;;;4.50;99.90;;;;;;6127168;23;19994;-75
2022/12/06 07:29:00;;;;;;;;;;;4.40;99.90;;;;;;6127276;23;19940;-75
2022/12/06 07:31:27;;;;;;;;;;;4.40;99.90;;;;;;6101154;23;19905;-75
2022/12/06 07:33:54;;;;;;;;;;;4.50;99.90;;;;;;6127139;23;20239;-75
2022/12/06 07:36:21;;;;;;;;;;;4.40;99.90;;;;;;6127053;23;19901;-76
2022/12/06 07:38:48;;;;;;;;;;;4.30;99.90;;;;;;6127448;23;19948;-75
2022/12/06 07:46:44;;;;;;;;;;;4.30;99.90;;;;;;6126933;23;20342;-76
2022/12/06 07:49:09;;;;;;;;;;;4.30;99.90;;;;;;6127005;23;19901;-74
2022/12/06 07:51:35;;;;;;;;;;;4.40;99.90;;;;;;6126839;23;19912;-75
2022/12/06 07:54:01;;;;;;;;;;;4.40;99.90;;;;;;6126984;23;20386;-76
2022/12/06 07:56:26;;;;;;;;;;;4.50;99.90;;;;;;6126946;23;19908;-75
2022/12/06 07:58:52;;;;;;;;;;;4.50;99.90;;;;;;6126986;23;19905;-76
2022/12/06 08:01:18;;;;;;;;;;;4.50;99.90;;;;;;6126800;23;19908;-75
2022/12/06 08:03:43;;;;;;;;;;;4.50;99.90;;;;;;6126419;23;19912;-75
2022/12/06 08:06:09;;;;;;;;;;;4.50;99.90;;;;;;6126907;23;19901;-76
2022/12/06 08:08:35;;;;;;;;;;;4.60;99.90;;;;;;6127151;23;19900;-75
2022/12/06 08:11:02;;;;;;;;;;;4.60;99.90;;;;;;6126853;23;19912;-75
2022/12/06 08:13:28;;;;;;;;;;;4.60;99.90;;;;;;6126739;23;20339;-76
2022/12/06 08:15:53;;;;;;;;;;;4.60;99.90;;;;;;6127338;23;19901;-75
2022/12/06 08:18:19;;;;;;;;;;;4.70;99.90;;;;;;6126855;23;19904;-76
2022/12/06 08:20:45;;;;;;;;;;;4.70;99.90;;;;;;6126810;23;19975;-75
2022/12/06 08:23:10;;;;;;;;;;;4.80;99.90;;;;;;6127360;23;19953;-74
2022/12/06 08:25:36;;;;;;;;;;;4.70;99.90;;;;;;6126771;23;20320;-76
2022/12/06 08:28:02;;;;;;;;;;;4.60;99.90;;;;;;6126930;23;19912;-75
2022/12/06 08:30:28;;;;;;;;;;;4.70;99.90;;;;;;6126831;23;19912;-75
2022/12/06 08:32:54;;;;;;;;;;;4.70;99.90;;;;;;6127045;23;19908;-75
2022/12/06 08:35:20;;;;;;;;;;;4.70;99.90;;;;;;6126837;23;19901;-75
2022/12/06 08:37:50;;;;;;;;;;;4.70;99.90;;;;;;6100980;23;19944;-75
2022/12/06 08:40:15;;;;;;;;;;;4.80;99.90;;;;;;6126967;23;20303;-74
2022/12/06 08:42:42;;;;;;;;;;;4.90;99.90;;;;;;6127048;23;19901;-75
2022/12/06 08:45:08;;;;;;;;;;;5.00;99.90;;;;;;6126725;23;19975;-76
2022/12/06 08:47:33;;;;;;;;;;;5.00;99.90;;;;;;6126662;23;19991;-75
2022/12/06 08:49:59;;;;;;;;;;;5.10;99.90;;;;;;6126636;23;19987;-75
2022/12/06 08:52:25;;;;;;;;;;;5.10;99.90;;;;;;6100786;23;20304;-75
2022/12/06 08:54:50;;;;;;;;;;;5.20;99.90;;;;;;6126917;23;19908;-75
2022/12/06 08:57:16;;;;;;;;;;;5.20;99.90;;;;;;6126729;23;19901;-75
2022/12/06 08:59:41;;;;;;;;;;;5.30;99.90;;;;;;6126488;23;19907;-75
2022/12/06 09:02:11;;;;;;;;;;;5.40;99.90;;;;;;6126290;23;19936;-76
2022/12/06 09:04:36;;;;;;;;;;;5.40;99.90;;;;;;6100595;23;19901;-76
2022/12/06 09:07:02;;;;;;;;;;;5.40;99.90;;;;;;6126394;23;19911;-74
2022/12/06 09:09:27;;;;;;;;;;;5.30;99.90;;;;;;6126699;23;19939;-74
2022/12/06 09:11:53;;;;;;;;;;;5.30;99.90;;;;;;6126300;23;20213;-76
2022/12/06 09:14:19;;;;;;;;;;;5.30;99.90;;;;;;6126552;23;20347;-75
2022/12/06 09:16:44;;;;;;;;;;;5.40;99.90;;;;;;6126792;23;19908;-75
2022/12/06 09:19:10;;;;;;;;;;;5.40;99.90;;;;;;6126683;23;19908;-75
2022/12/06 09:21:38;;;;;;;;;;;5.60;99.90;;;;;;6126446;23;19901;-75
2022/12/06 09:24:04;;;;;;;;;;;5.70;99.90;;;;;;6127026;23;20324;-75
2022/12/06 09:26:30;;;;;;;;;;;5.70;99.90;;;;;;6101994;23;19907;-75
2022/12/06 09:28:55;;;;;;;;;;;5.60;99.90;;;;;;6128452;23;19900;-75
2022/12/06 09:31:22;;;;;;;;;;;5.60;99.90;;;;;;6128301;23;20267;-75
2022/12/06 09:33:48;;;;;;;;;;;5.60;99.90;;;;;;6128393;23;19923;-75
2022/12/06 09:36:17;;;;;;;;;;;5.60;99.90;;;;;;6102385;23;20320;-76
2022/12/06 09:38:44;;;;;;;;;;;5.50;99.90;;;;;;6128108;23;19927;-75
2022/12/06 09:41:28;;;;;;;;;;;5.50;99.90;;;;;;6128284;23;19908;-75
2022/12/06 09:43:54;;;;;;;;;;;5.50;99.90;;;;;;6127981;23;19901;-74
2022/12/06 09:46:34;;;;;;;;;;;5.60;99.90;;;;;;6128132;23;20374;-76
2022/12/06 09:49:19;;;;;;;;;;;5.70;99.90;;;;;;6128554;23;19980;-75
2022/12/06 09:51:59;;;;;;;;;;;6.20;99.90;;;;;;6128215;23;19908;-76
2022/12/06 09:54:33;;;;;;;;;;;6.60;99.90;;;;;;6101773;23;19908;-75
2022/12/06 09:57:07;;;;;;;;;;;7.00;99.90;;;;;;6127917;23;19908;-75
2022/12/06 09:59:46;;;;;;;;;;;7.70;99.90;;;;;;6128251;23;19959;-76
2022/12/06 10:02:11;;;;;;;;;;;8.00;99.90;;;;;;6127983;23;19915;-75
2022/12/06 10:04:52;;;;;;;;;;;8.20;99.90;;;;;;6101853;23;19900;-76
2022/12/06 10:07:50;;;;;;;;;;;8.50;99.90;;;;;;6127863;23;19901;-76
2022/12/06 10:10:21;;;;;;;;;;;9.50;99.90;;;;;;6079118;23;19904;-76
2022/12/06 10:12:56;;;;;;;;;;;11.80;53.80;;;;;;6127808;23;19932;-77
2022/12/06 10:15:31;;;;;;;;;;;13.50;10.50;;;;;;6127772;23;20387;-77
2022/12/06 10:18:12;;;;;;;;;;;15.00;1.00;;;;;;6127817;23;19947;-77
2022/12/06 10:20:57;;;;;;;;;;;16.10;1.00;;;;;;6127817;23;19979;-77
2022/12/06 10:23:28;;;;;;;;;;;16.40;1.00;;;;;;6128325;23;20328;-78
2022/12/06 10:25:57;;;;;;;;;;;16.60;1.00;;;;;;6127935;23;19901;-77
2022/12/06 10:28:22;;;;;;;;;;;17.00;1.00;;;;;;6127722;23;19905;-77
2022/12/06 10:30:54;;;;;;;;;;;17.70;1.00;;;;;;6127705;23;19940;-77
2022/12/06 10:33:32;;;;;;;;;;;17.10;1.00;;;;;;6127623;23;19901;-77
2022/12/06 10:35:59;;;;;;;;;;;16.40;1.00;;;;;;6127976;23;19939;-76
2022/12/06 10:38:38;;;;;;;;;;;16.40;1.00;;;;;;6127627;23;19901;-78
2022/12/06 10:41:23;;;;;;;;;;;16.50;1.00;;;;;;6127722;23;19907;-78
2022/12/06 10:43:54;;;;;;;;;;;16.30;1.00;;;;;;6127796;23;19976;-76
2022/12/06 10:49:09;;;;;;;;;;;16.80;1.00;;;;;;6127331;23;19923;-78
2022/12/06 10:51:56;;;;;;;;;;;17.80;1.00;;;;;;6127382;23;20320;-79
2022/12/06 10:54:37;;;;;;;;;;;17.80;1.00;;;;;;6127809;23;19955;-77
2022/12/06 10:57:06;;;;;;;;;;;17.70;1.00;;;;;;6127345;23;20394;-76
2022/12/06 10:59:38;;;;;;;;;;;16.90;1.00;;;;;;6127262;23;19969;-77
2022/12/06 11:02:14;;;;;;;;;;;17.20;1.00;;;;;;6126999;23;20332;-76
2022/12/06 11:04:42;;;;;;;;;;;17.20;1.00;;;;;;6127376;23;19901;-77
2022/12/06 11:07:13;;;;;;;;;;;17.90;1.00;;;;;;6127362;23;19953;-78
2022/12/06 11:09:44;;;;;;;;;;;17.70;1.00;;;;;;6127352;23;19901;-78
2022/12/06 11:12:20;;;;;;;;;;;17.90;1.00;;;;;;6127210;23;19905;-78
2022/12/06 11:14:49;;;;;;;;;;;17.50;1.00;;;;;;6127555;23;19923;-78
2022/12/06 11:17:26;;;;;;;;;;;18.00;1.00;;;;;;6127352;23;19909;-79
2022/12/06 11:20:01;;;;;;;;;;;17.70;1.00;;;;;;6127545;23;19936;-78
2022/12/06 11:22:38;;;;;;;;;;;18.50;1.00;;;;;;6127239;23;19901;-77
2022/12/06 11:25:18;;;;;;;;;;;18.60;1.00;;;;;;6127922;23;19901;-75
2022/12/06 11:27:50;;;;;;;;;;;18.40;1.00;;;;;;6127468;23;19901;-75
2022/12/06 11:30:17;;;;;;;;;;;18.60;1.00;;;;;;6127264;23;19959;-75
2022/12/06 11:32:43;;;;;;;;;;;19.20;1.00;;;;;;6127343;23;19928;-75
2022/12/06 11:35:14;;;;;;;;;;;19.00;1.00;;;;;;6127167;23;19901;-74
2022/12/06 11:37:41;;;;;;;;;;;19.10;1.00;;;;;;6127062;23;19901;-75
2022/12/06 11:40:06;;;;;;;;;;;19.00;1.00;;;;;;6127295;23;20244;-74
2022/12/06 11:42:32;;;;;;;;;;;19.10;1.00;;;;;;6127363;23;19905;-74
2022/12/06 11:45:27;;;;;;;;;;;18.90;1.00;;;;;;6127013;23;20435;-75
2022/12/06 11:47:58;;;;;;;;;;;19.20;1.00;;;;;;6092591;23;19912;-77
2022/12/06 11:50:24;;;;;;;;;;;18.50;1.00;;;;;;6126868;23;19905;-77
2022/12/06 11:52:58;;;;;;;;;;;18.40;1.00;;;;;;6127280;23;19901;-75
2022/12/06 11:55:29;;;;;;;;;;;18.70;1.00;;;;;;6126956;23;19904;-77
2022/12/06 11:58:01;;;;;;;;;;;18.50;1.00;;;;;;6126880;23;19908;-75
2022/12/06 12:00:27;;;;;;;;;;;18.50;1.00;;;;;;6127242;23;19908;-75
2022/12/06 12:02:53;;;;;;;;;;;18.30;1.00;;;;;;6126682;23;19987;-75
2022/12/06 12:05:22;;;;;;;;;;;18.50;1.00;;;;;;6126834;23;20240;-74
2022/12/06 12:07:50;;;;;;;;;;;18.80;1.00;;;;;;6126968;23;19900;-74
2022/12/06 12:10:24;;;;;;;;;;;18.30;1.00;;;;;;6126954;23;19956;-74
2022/12/06 12:15:34;;;;;;;;;;;18.30;1.00;;;;;;6126498;23;19908;-75
2022/12/06 12:18:01;;;;;;;;;;;18.70;1.00;;;;;;6126808;23;19901;-74
2022/12/06 12:20:27;;;;;;;;;;;18.90;1.00;;;;;;6100733;23;20213;-74
2022/12/06 12:22:58;;;;;;;;;;;19.20;1.00;;;;;;6126669;23;19905;-75
2022/12/06 12:25:26;;;;;;;;;;;18.70;1.00;;;;;;6120348;23;19951;-76
2022/12/06 12:27:53;;;;;;;;;;;18.50;1.00;;;;;;6118991;23;19924;-74
2022/12/06 12:30:33;;;;;;;;;;;18.60;1.00;;;;;;6126461;23;19908;-76
2022/12/06 12:33:05;;;;;;;;;;;18.90;1.00;;;;;;6126783;23;19901;-76
2022/12/06 12:35:31;;;;;;;;;;;18.90;1.00;;;;;;6126632;23;20236;-76
2022/12/06 12:38:09;;;;;;;;;;;19.40;1.00;;;;;;6126649;23;19980;-76
2022/12/06 12:40:35;;;;;;;;;;;19.50;1.00;;;;;;6126626;23;19908;-76
2022/12/06 12:43:05;;;;;;;;;;;19.70;1.00;;;;;;6100740;23;19901;-76
2022/12/06 12:45:31;;;;;;;;;;;20.10;1.00;;;;;;6126571;23;19901;-76
2022/12/06 12:47:58;;;;;;;;;;;20.30;1.00;;;;;;6126577;23;19901;-76
2022/12/06 12:50:23;;;;;;;;;;;20.60;1.00;;;;;;6126465;23;19912;-77
2022/12/06 12:52:49;;;;;;;;;;;21.70;1.00;;;;;;6126585;23;20248;-75
2022/12/06 12:55:17;;;;;;;;;;;21.60;1.00;;;;;;6126578;23;19901;-75
2022/12/06 12:57:47;;;;;;;;;;;21.30;1.00;;;;;;6126460;23;20213;-75
2022/12/06 13:00:15;;;;;;;;;;;20.00;1.00;;;;;;6127320;23;19904;-75
2022/12/06 13:02:41;;;;;;;;;;;19.60;1.00;;;;;;6128431;23;19959;-75
2022/12/06 13:05:30;;;;;;;;;;;19.40;1.00;;;;;;6128500;23;19908;-76
2022/12/06 13:08:00;;;;;;;;;;;18.80;1.00;;;;;;6116827;23;20024;-75
2022/12/06 13:10:29;;;;;;;;;;;19.10;1.00;;;;;;6128354;23;20295;-75
2022/12/06 13:12:58;;;;;;;;;;;19.70;1.00;;;;;;6128636;23;19936;-75
2022/12/06 13:15:59;;;;;;;;;;;20.20;1.00;;;;;;6128507;23;19955;-75
2022/12/06 13:18:26;;;;;;;;;;;21.10;1.00;;;;;;6039346;23;19902;-75
2022/12/06 13:20:53;;;;;;;;;;;21.40;1.00;;;;;;6110263;23;19901;-75
2022/12/06 13:23:19;;;;;;;;;;;21.00;1.00;;;;;;6128342;23;19980;-75
2022/12/06 13:25:51;;;;;;;;;;;20.10;1.00;;;;;;6128886;23;19901;-75
2022/12/06 13:28:19;;;;;;;;;;;20.10;1.00;;;;;;6128597;23;19901;-75
2022/12/06 13:30:46;;;;;;;;;;;19.80;1.00;;;;;;6128347;23;19940;-75
2022/12/06 13:33:21;;;;;;;;;;;20.50;1.00;;;;;;6128344;23;19901;-75
2022/12/06 13:35:53;;;;;;;;;;;20.00;1.00;;;;;;6128211;23;19901;-75
2022/12/06 13:38:18;;;;;;;;;;;19.90;1.00;;;;;;6128475;23;19907;-74
2022/12/06 13:40:48;;;;;;;;;;;19.20;1.00;;;;;;6102198;23;19937;-75
2022/12/06 13:43:23;;;;;;;;;;;19.30;1.00;;;;;;6128286;23;19900;-75
2022/12/06 13:46:07;;;;;;;;;;;19.70;1.00;;;;;;6128166;23;19901;-75
2022/12/06 13:48:32;;;;;;;;;;;19.60;1.00;;;;;;6128127;23;19905;-75
2022/12/06 13:51:00;;;;;;;;;;;19.60;1.00;;;;;;6128021;23;19912;-74
2022/12/06 13:53:26;;;;;;;;;;;19.90;1.00;;;;;;6128191;23;19908;-75
2022/12/06 13:55:57;;;;;;;;;;;19.80;1.00;;;;;;6128023;23;19979;-75
2022/12/06 13:58:26;;;;;;;;;;;19.70;1.00;;;;;;6128093;23;19905;-74
2022/12/06 14:00:52;;;;;;;;;;;19.80;1.00;;;;;;6128151;23;19900;-75
2022/12/06 14:03:18;;;;;;;;;;;20.10;1.00;;;;;;6127758;23;19916;-75
2022/12/06 14:05:59;;;;;;;;;;;19.90;1.00;;;;;;6127942;23;19972;-75
2022/12/06 14:08:30;;;;;;;;;;;19.80;1.00;;;;;;6127884;23;19901;-75
2022/12/06 14:11:16;;;;;;;;;;;19.70;1.00;;;;;;6127822;23;20032;-74
2022/12/06 14:13:46;;;;;;;;;;;19.50;1.00;;;;;;6127922;23;19901;-74
2022/12/06 14:16:15;;;;;;;;;;;19.30;1.00;;;;;;6127897;23;19976;-74
2022/12/06 14:18:41;;;;;;;;;;;19.20;1.00;;;;;;6127781;23;19908;-74
2022/12/06 14:21:19;;;;;;;;;;;19.30;1.00;;;;;;6127798;23;19901;-75
2022/12/06 14:23:46;;;;;;;;;;;19.70;1.00;;;;;;6128250;23;19907;-75
2022/12/06 14:26:12;;;;;;;;;;;17.80;1.00;;;;;;6101811;23;19901;-75
2022/12/06 14:28:37;;;;;;;;;;;17.90;1.00;;;;;;6127706;23;19947;-75
2022/12/06 14:31:04;;;;;;;;;;;18.00;1.00;;;;;;6127767;23;19905;-75
2022/12/06 14:33:30;;;;;;;;;;;19.10;1.00;;;;;;6127713;23;19901;-75
2022/12/06 14:35:57;;;;;;;;;;;18.50;1.00;;;;;;6127621;23;19901;-74
2022/12/06 14:38:23;;;;;;;;;;;18.10;1.00;;;;;;6128003;23;19933;-74
2022/12/06 14:43:34;;;;;;;;;;;17.70;1.00;;;;;;6127349;23;19955;-75
2022/12/06 14:46:01;;;;;;;;;;;17.70;1.00;;;;;;6127625;23;20239;-75
2022/12/06 14:50:22;;;;;;;;;;;17.70;1.00;;;;;;6127583;23;19908;-74
2022/12/06 14:51:20;;;;;;;;;;;17.60;1.00;;;;;;6126904;23;20326;-75
2022/12/06 14:53:46;;;;;;;;;;;17.70;1.00;;;;;;6127507;23;19912;-77
2022/12/06 14:56:23;;;;;;;;;;;18.00;1.00;;;;;;6127741;23;19901;-77
2022/12/06 14:58:50;;;;;;;;;;;18.70;1.00;;;;;;6127506;23;19923;-76
2022/12/06 15:01:21;;;;;;;;;;;18.00;1.00;;;;;;6127433;23;19905;-76
2022/12/06 15:04:00;;;;;;;;;;;17.90;1.00;;;;;;6127004;23;19913;-76
2022/12/06 15:06:27;;;;;;;;;;;18.10;1.00;;;;;;6127364;23;19951;-77
2022/12/06 15:08:55;;;;;;;;;;;18.10;1.00;;;;;;6127427;23;19955;-76
2022/12/06 15:14:10;;;;;;;;;;;16.80;1.00;;;;;;6127029;23;19988;-76
2022/12/06 15:16:36;;;;;;;;;;;16.50;1.00;;;;;;6127299;23;19908;-76